createdAt,value
2022-08-23T00:00:33.410Z,1016.12
2022-08-23T00:01:37.690Z,1016.13
2022-08-23T00:02:42.134Z,1016.14
2022-08-23T00:03:46.480Z,1016.12
2022-08-23T00:05:07.326Z,1016.14
2022-08-23T00:05:55.269Z,1016.16
2022-08-23T00:06:59.618Z,1016.15
2022-08-23T00:08:04.030Z,1016.15
2022-08-23T00:09:08.399Z,1016.13
2022-08-23T00:10:12.775Z,1016.14
2022-08-23T00:11:17.165Z,1016.13
2022-08-23T00:12:21.556Z,1016.15
2022-08-23T00:13:25.959Z,1016.13
2022-08-23T00:14:30.364Z,1016.13
2022-08-23T00:15:34.862Z,1016.13
2022-08-23T00:16:39.222Z,1016.15
2022-08-23T00:17:43.596Z,1016.11
2022-08-23T00:18:49.446Z,1016.09
2022-08-23T00:19:52.474Z,1016.10
2022-08-23T00:20:56.857Z,1016.06
2022-08-23T00:22:01.249Z,1016.04
2022-08-23T00:23:05.636Z,1015.99
2022-08-23T00:24:10.021Z,1015.98
2022-08-23T00:25:14.401Z,1015.94
2022-08-23T00:26:18.786Z,1015.94
2022-08-23T00:27:23.174Z,1015.90
2022-08-23T00:28:27.538Z,1015.90
2022-08-23T00:29:31.996Z,1015.88
2022-08-23T00:30:36.323Z,1015.84
2022-08-23T00:31:40.693Z,1015.84
2022-08-23T00:32:45.079Z,1015.84
2022-08-23T00:33:49.484Z,1015.85
2022-08-23T00:34:53.870Z,1015.84
2022-08-23T00:35:58.256Z,1015.86
2022-08-23T00:37:02.643Z,1015.87
2022-08-23T00:38:33.026Z,1015.85
2022-08-23T00:39:11.433Z,1015.85
2022-08-23T00:40:15.884Z,1015.82
2022-08-23T00:41:20.215Z,1015.82
2022-08-23T00:42:24.694Z,1015.81
2022-08-23T00:43:29.147Z,1015.81
2022-08-23T00:44:33.473Z,1015.79
2022-08-23T00:45:37.903Z,1015.79
2022-08-23T00:46:42.378Z,1015.78
2022-08-23T00:47:46.691Z,1015.77
2022-08-23T00:48:51.062Z,1015.79
2022-08-23T00:49:55.465Z,1015.81
2022-08-23T00:50:59.857Z,1015.83
2022-08-23T00:52:04.236Z,1015.84
2022-08-23T00:53:08.609Z,1015.85
2022-08-23T00:54:12.987Z,1015.86
2022-08-23T00:55:17.387Z,1015.86
2022-08-23T00:56:21.749Z,1015.82
2022-08-23T00:57:26.164Z,1015.78
2022-08-23T00:58:30.553Z,1015.74
2022-08-23T00:59:34.964Z,1015.72
2022-08-23T01:00:39.335Z,1015.71
2022-08-23T01:01:43.773Z,1015.70
2022-08-23T01:02:48.080Z,1015.71
2022-08-23T01:03:59.200Z,1015.72
2022-08-23T01:04:56.859Z,1015.73
2022-08-23T01:06:01.232Z,1015.76
2022-08-23T01:07:05.635Z,1015.75
2022-08-23T01:08:10.022Z,1015.73
2022-08-23T01:09:14.406Z,1015.72
2022-08-23T01:10:21.017Z,1015.70
2022-08-23T01:11:23.232Z,1015.71
2022-08-23T01:12:32.263Z,1015.70
2022-08-23T01:13:32.016Z,1015.71
2022-08-23T01:14:36.393Z,1015.68
2022-08-23T01:15:40.800Z,1015.72
2022-08-23T01:16:45.210Z,1015.75
2022-08-23T01:17:49.616Z,1015.74
2022-08-23T01:18:53.952Z,1015.73
2022-08-23T01:19:58.319Z,1015.73
2022-08-23T01:21:02.700Z,1015.74
2022-08-23T01:22:07.128Z,1015.76
2022-08-23T01:23:25.650Z,1015.77
2022-08-23T01:24:54.097Z,1015.79
2022-08-23T01:25:33.581Z,1015.80
2022-08-23T01:26:37.990Z,1015.80
2022-08-23T01:27:42.331Z,1015.83
2022-08-23T01:28:46.723Z,1015.84
2022-08-23T01:29:51.209Z,1015.84
2022-08-23T01:30:55.546Z,1015.84
2022-08-23T01:31:59.902Z,1015.86
2022-08-23T01:33:04.285Z,1015.85
2022-08-23T01:34:08.700Z,1015.86
2022-08-23T01:36:24.859Z,1015.84
2022-08-23T01:37:29.177Z,1015.86
2022-08-23T01:38:33.576Z,1015.87
2022-08-23T01:39:38.071Z,1015.86
2022-08-23T01:40:42.420Z,1015.86
2022-08-23T01:41:46.762Z,1015.85
2022-08-23T01:42:51.138Z,1015.85
2022-08-23T01:43:55.536Z,1015.83
2022-08-23T01:44:59.919Z,1015.85
2022-08-23T01:46:04.318Z,1015.86
2022-08-23T01:47:08.711Z,1015.88
2022-08-23T01:48:13.120Z,1015.89
2022-08-23T01:49:17.499Z,1015.95
2022-08-23T01:50:21.890Z,1015.96
2022-08-23T01:51:26.285Z,1016.00
2022-08-23T01:52:30.636Z,1016.02
2022-08-23T01:53:35.006Z,1016.03
2022-08-23T01:54:39.410Z,1016.06
2022-08-23T01:55:43.819Z,1016.05
2022-08-23T01:56:48.207Z,1016.04
2022-08-23T01:57:52.560Z,1016.06
2022-08-23T01:58:56.957Z,1016.05
2022-08-23T02:00:01.354Z,1016.06
2022-08-23T02:01:05.750Z,1016.06
2022-08-23T02:02:10.115Z,1016.03
2022-08-23T02:03:14.502Z,1016.01
2022-08-23T02:04:18.912Z,1015.99
2022-08-23T02:05:23.301Z,1015.97
2022-08-23T02:06:27.673Z,1015.97
2022-08-23T02:07:32.041Z,1015.98
2022-08-23T02:08:36.415Z,1015.97
2022-08-23T02:09:40.818Z,1015.98
2022-08-23T02:10:45.198Z,1015.96
2022-08-23T02:11:49.613Z,1015.97
2022-08-23T02:12:53.967Z,1015.97
2022-08-23T02:13:58.347Z,1015.98
2022-08-23T02:15:02.755Z,1016.00
2022-08-23T02:16:07.171Z,1016.01
2022-08-23T02:17:11.576Z,1015.98
2022-08-23T02:18:16.243Z,1016.00
2022-08-23T02:19:20.390Z,1016.00
2022-08-23T02:20:24.694Z,1016.01
2022-08-23T02:21:29.104Z,1016.02
2022-08-23T02:22:33.483Z,1016.03
2022-08-23T02:23:37.870Z,1016.03
2022-08-23T02:24:42.267Z,1016.05
2022-08-23T02:25:46.670Z,1016.06
2022-08-23T02:26:51.116Z,1016.10
2022-08-23T02:27:55.450Z,1016.09
2022-08-23T02:28:59.868Z,1016.11
2022-08-23T02:30:04.205Z,1016.11
2022-08-23T02:31:08.607Z,1016.12
2022-08-23T02:32:12.996Z,1016.12
2022-08-23T02:33:20.402Z,1016.11
2022-08-23T02:35:33.134Z,1016.13
2022-08-23T02:36:37.511Z,1016.12
2022-08-23T02:37:41.854Z,1016.12
2022-08-23T02:38:46.224Z,1016.12
2022-08-23T02:39:50.671Z,1016.11
2022-08-23T02:41:01.101Z,1016.11
2022-08-23T02:41:59.381Z,1016.12
2022-08-23T02:43:03.778Z,1016.12
2022-08-23T02:44:08.145Z,1016.12
2022-08-23T02:45:12.541Z,1016.13
2022-08-23T02:46:16.899Z,1016.14
2022-08-23T02:47:21.276Z,1016.13
2022-08-23T02:48:25.664Z,1016.12
2022-08-23T02:49:30.069Z,1016.14
2022-08-23T02:50:34.444Z,1016.13
2022-08-23T02:51:38.826Z,1016.13
2022-08-23T02:52:43.251Z,1016.17
2022-08-23T02:53:47.640Z,1016.20
2022-08-23T02:54:53.237Z,1016.19
2022-08-23T02:55:56.442Z,1016.21
2022-08-23T02:57:00.848Z,1016.23
2022-08-23T02:58:05.221Z,1016.23
2022-08-23T02:59:09.599Z,1016.25
2022-08-23T03:00:14.008Z,1016.26
2022-08-23T03:01:18.369Z,1016.28
2022-08-23T03:02:22.772Z,1016.28
2022-08-23T03:03:27.107Z,1016.28
2022-08-23T03:04:31.503Z,1016.28
2022-08-23T03:05:35.852Z,1016.25
2022-08-23T03:06:40.336Z,1016.23
2022-08-23T03:07:44.672Z,1016.20
2022-08-23T03:08:48.991Z,1016.18
2022-08-23T03:09:53.342Z,1016.19
2022-08-23T03:10:57.747Z,1016.19
2022-08-23T03:12:02.104Z,1016.20
2022-08-23T03:13:06.462Z,1016.20
2022-08-23T03:14:10.842Z,1016.20
2022-08-23T03:15:15.227Z,1016.18
2022-08-23T03:16:19.622Z,1016.22
2022-08-23T03:17:24.012Z,1016.22
2022-08-23T03:18:28.400Z,1016.25
2022-08-23T03:19:32.778Z,1016.25
2022-08-23T03:20:37.151Z,1016.26
2022-08-23T03:21:41.601Z,1016.27
2022-08-23T03:22:54.396Z,1016.27
2022-08-23T03:23:50.282Z,1016.29
2022-08-23T03:24:54.699Z,1016.28
2022-08-23T03:25:59.070Z,1016.29
2022-08-23T03:27:03.467Z,1016.29
2022-08-23T03:28:07.807Z,1016.30
2022-08-23T03:29:12.163Z,1016.33
2022-08-23T03:30:19.607Z,1016.35
2022-08-23T03:31:20.921Z,1016.37
2022-08-23T03:32:25.304Z,1016.39
2022-08-23T03:33:29.791Z,1016.40
2022-08-23T03:34:34.140Z,1016.41
2022-08-23T03:35:38.540Z,1016.42
2022-08-23T03:36:42.897Z,1016.43
2022-08-23T03:37:47.282Z,1016.45
2022-08-23T03:38:51.708Z,1016.45
2022-08-23T03:39:56.154Z,1016.45
2022-08-23T03:41:00.454Z,1016.45
2022-08-23T03:42:04.812Z,1016.44
2022-08-23T03:43:09.234Z,1016.44
2022-08-23T03:44:13.594Z,1016.44
2022-08-23T03:45:17.955Z,1016.45
2022-08-23T03:46:22.343Z,1016.45
2022-08-23T03:47:26.709Z,1016.47
2022-08-23T03:48:31.213Z,1016.50
2022-08-23T03:49:35.539Z,1016.49
2022-08-23T03:50:40.048Z,1016.50
2022-08-23T03:51:44.328Z,1016.52
2022-08-23T03:52:48.712Z,1016.53
2022-08-23T03:53:53.086Z,1016.53
2022-08-23T03:54:57.479Z,1016.53
2022-08-23T03:56:01.858Z,1016.55
2022-08-23T03:57:06.210Z,1016.54
2022-08-23T03:58:16.600Z,1016.53
2022-08-23T03:59:19.632Z,1016.55
2022-08-23T04:00:23.989Z,1016.55
2022-08-23T04:01:28.895Z,1016.57
2022-08-23T04:02:32.731Z,1016.57
2022-08-23T04:03:37.088Z,1016.57
2022-08-23T04:04:41.446Z,1016.58
2022-08-23T04:05:45.834Z,1016.59
2022-08-23T04:06:50.188Z,1016.61
2022-08-23T04:07:54.576Z,1016.60
2022-08-23T04:08:58.927Z,1016.63
2022-08-23T04:10:03.286Z,1016.63
2022-08-23T04:11:07.664Z,1016.61
2022-08-23T04:12:17.838Z,1016.62
2022-08-23T04:13:16.447Z,1016.62
2022-08-23T04:14:20.853Z,1016.63
2022-08-23T04:15:25.323Z,1016.64
2022-08-23T04:16:29.633Z,1016.64
2022-08-23T04:17:34.037Z,1016.65
2022-08-23T04:18:38.423Z,1016.68
2022-08-23T04:19:42.793Z,1016.71
2022-08-23T04:20:47.164Z,1016.73
2022-08-23T04:21:51.520Z,1016.77
2022-08-23T04:22:55.891Z,1016.79
2022-08-23T04:24:00.271Z,1016.80
2022-08-23T04:25:04.652Z,1016.80
2022-08-23T04:26:09.833Z,1016.81
2022-08-23T04:27:13.408Z,1016.84
2022-08-23T04:28:17.890Z,1016.87
2022-08-23T04:29:33.739Z,1016.87
2022-08-23T04:30:26.652Z,1016.87
2022-08-23T04:31:31.900Z,1016.88
2022-08-23T04:32:35.405Z,1016.91
2022-08-23T04:33:40.228Z,1016.92
2022-08-23T04:34:45.366Z,1016.93
2022-08-23T04:35:48.517Z,1016.93
2022-08-23T04:36:55.415Z,1016.93
2022-08-23T04:37:57.276Z,1016.95
2022-08-23T04:39:01.677Z,1016.97
2022-08-23T04:40:06.266Z,1017.02
2022-08-23T04:41:11.152Z,1017.03
2022-08-23T04:42:15.122Z,1017.06
2022-08-23T04:43:19.280Z,1017.11
2022-08-23T04:44:23.730Z,1017.13
2022-08-23T04:45:28.051Z,1017.15
2022-08-23T04:46:32.418Z,1017.16
2022-08-23T04:47:36.769Z,1017.15
2022-08-23T04:48:41.123Z,1017.15
2022-08-23T04:49:45.495Z,1017.12
2022-08-23T04:50:49.879Z,1017.13
2022-08-23T04:51:54.295Z,1017.13
2022-08-23T04:52:58.551Z,1017.13
2022-08-23T04:54:02.994Z,1017.11
2022-08-23T04:55:07.305Z,1017.13
2022-08-23T04:56:11.666Z,1017.11
2022-08-23T04:57:16.046Z,1017.13
2022-08-23T04:58:20.420Z,1017.16
2022-08-23T04:59:24.767Z,1017.16
2022-08-23T05:00:29.158Z,1017.17
2022-08-23T05:01:33.512Z,1017.17
2022-08-23T05:02:37.842Z,1017.18
2022-08-23T05:03:42.214Z,1017.17
2022-08-23T05:04:46.585Z,1017.16
2022-08-23T05:05:50.971Z,1017.17
2022-08-23T05:06:55.309Z,1017.16
2022-08-23T05:07:59.803Z,1017.17
2022-08-23T05:09:03.980Z,1017.20
2022-08-23T05:10:08.482Z,1017.20
2022-08-23T05:11:12.809Z,1017.21
2022-08-23T05:12:17.168Z,1017.23
2022-08-23T05:13:21.503Z,1017.22
2022-08-23T05:14:25.868Z,1017.23
2022-08-23T05:15:30.226Z,1017.21
2022-08-23T05:16:34.600Z,1017.20
2022-08-23T05:17:39.063Z,1017.21
2022-08-23T05:18:43.399Z,1017.19
2022-08-23T05:19:47.783Z,1017.19
2022-08-23T05:20:52.145Z,1017.19
2022-08-23T05:21:57.342Z,1017.18
2022-08-23T05:23:00.956Z,1017.21
2022-08-23T05:24:05.357Z,1017.21
2022-08-23T05:25:09.746Z,1017.22
2022-08-23T05:26:14.145Z,1017.23
2022-08-23T05:27:18.526Z,1017.21
2022-08-23T05:28:22.898Z,1017.19
2022-08-23T05:29:27.242Z,1017.20
2022-08-23T05:30:31.701Z,1017.21
2022-08-23T05:31:36.053Z,1017.22
2022-08-23T05:32:40.562Z,1017.22
2022-08-23T05:33:44.911Z,1017.25
2022-08-23T05:34:49.296Z,1017.25
2022-08-23T05:35:53.729Z,1017.24
2022-08-23T05:36:58.088Z,1017.24
2022-08-23T05:38:02.716Z,1017.25
2022-08-23T05:39:06.910Z,1017.26
2022-08-23T05:40:11.409Z,1017.26
2022-08-23T05:41:15.695Z,1017.28
2022-08-23T05:42:20.086Z,1017.29
2022-08-23T05:43:24.484Z,1017.29
2022-08-23T05:44:28.851Z,1017.30
2022-08-23T05:45:33.292Z,1017.31
2022-08-23T05:46:37.651Z,1017.24
2022-08-23T05:47:42.006Z,1017.22
2022-08-23T05:48:46.419Z,1017.23
2022-08-23T05:49:50.852Z,1017.22
2022-08-23T05:50:55.226Z,1017.22
2022-08-23T05:51:59.616Z,1017.22
2022-08-23T05:53:04.015Z,1017.24
2022-08-23T05:54:08.425Z,1017.23
2022-08-23T05:55:12.805Z,1017.22
2022-08-23T05:56:17.243Z,1017.23
2022-08-23T05:57:21.718Z,1017.22
2022-08-23T05:58:26.103Z,1017.23
2022-08-23T05:59:30.511Z,1017.20
2022-08-23T06:00:38.010Z,1017.20
2022-08-23T06:01:39.468Z,1017.19
2022-08-23T06:02:43.843Z,1017.17
2022-08-23T06:03:48.316Z,1017.17
2022-08-23T06:04:57.171Z,1017.16
2022-08-23T06:05:57.192Z,1017.17
2022-08-23T06:07:01.603Z,1017.16
2022-08-23T06:08:06.015Z,1017.16
2022-08-23T06:09:10.515Z,1017.17
2022-08-23T06:10:16.242Z,1017.15
2022-08-23T06:11:19.337Z,1017.17
2022-08-23T06:12:23.760Z,1017.18
2022-08-23T06:13:28.157Z,1017.18
2022-08-23T06:14:32.644Z,1017.19
2022-08-23T06:15:50.959Z,1017.19
2022-08-23T06:16:56.209Z,1017.22
2022-08-23T06:17:58.675Z,1017.19
2022-08-23T06:19:03.092Z,1017.20
2022-08-23T06:20:07.527Z,1017.17
2022-08-23T06:21:11.937Z,1017.19
2022-08-23T06:22:16.368Z,1017.17
2022-08-23T06:23:20.810Z,1017.17
2022-08-23T06:24:25.221Z,1017.18
2022-08-23T06:25:29.638Z,1017.19
2022-08-23T06:26:34.071Z,1017.20
2022-08-23T06:27:38.606Z,1017.19
2022-08-23T06:28:50.297Z,1017.20
2022-08-23T06:29:47.425Z,1017.15
2022-08-23T06:30:51.959Z,1017.12
2022-08-23T06:31:56.353Z,1017.12
2022-08-23T06:33:00.858Z,1017.12
2022-08-23T06:34:05.437Z,1017.12
2022-08-23T06:35:32.854Z,1017.10
2022-08-23T06:36:14.256Z,1017.10
2022-08-23T06:37:18.753Z,1017.09
2022-08-23T06:38:23.162Z,1017.10
2022-08-23T06:39:27.585Z,1017.12
2022-08-23T06:40:32.024Z,1017.12
2022-08-23T06:41:36.484Z,1017.13
2022-08-23T06:42:40.869Z,1017.14
2022-08-23T06:43:45.300Z,1017.13
2022-08-23T06:44:49.720Z,1017.13
2022-08-23T06:45:58.112Z,1017.13
2022-08-23T06:46:58.685Z,1017.13
2022-08-23T06:48:03.242Z,1017.14
2022-08-23T06:49:07.439Z,1017.12
2022-08-23T06:50:11.856Z,1017.11
2022-08-23T06:51:16.196Z,1017.14
2022-08-23T06:52:20.659Z,1017.16
2022-08-23T06:53:25.058Z,1017.15
2022-08-23T06:54:29.513Z,1017.16
2022-08-23T06:55:33.932Z,1017.17
2022-08-23T06:56:38.336Z,1017.16
2022-08-23T06:57:42.781Z,1017.15
2022-08-23T06:58:47.219Z,1017.14
2022-08-23T06:59:51.680Z,1017.15
2022-08-23T07:00:57.653Z,1017.14
2022-08-23T07:02:00.752Z,1017.16
2022-08-23T07:03:05.062Z,1017.15
2022-08-23T07:04:09.456Z,1017.13
2022-08-23T07:05:13.876Z,1017.13
2022-08-23T07:06:18.351Z,1017.13
2022-08-23T07:07:22.790Z,1017.13
2022-08-23T07:08:27.269Z,1017.15
2022-08-23T07:09:31.733Z,1017.15
2022-08-23T07:10:36.179Z,1017.14
2022-08-23T07:11:40.699Z,1017.13
2022-08-23T07:12:45.137Z,1017.13
2022-08-23T07:13:49.526Z,1017.13
2022-08-23T07:14:53.980Z,1017.13
2022-08-23T07:15:58.531Z,1017.12
2022-08-23T07:17:02.829Z,1017.11
2022-08-23T07:18:07.250Z,1017.13
2022-08-23T07:19:11.661Z,1017.12
2022-08-23T07:20:16.107Z,1017.13
2022-08-23T07:21:20.514Z,1017.12
2022-08-23T07:22:24.940Z,1017.13
2022-08-23T07:23:29.374Z,1017.13
2022-08-23T07:24:34.183Z,1017.13
2022-08-23T07:25:38.233Z,1017.12
2022-08-23T07:26:42.751Z,1017.15
2022-08-23T07:27:47.126Z,1017.15
2022-08-23T07:28:51.564Z,1017.17
2022-08-23T07:29:56.081Z,1017.18
2022-08-23T07:31:00.496Z,1017.20
2022-08-23T07:32:05.121Z,1017.23
2022-08-23T07:33:09.389Z,1017.23
2022-08-23T07:34:15.495Z,1017.23
2022-08-23T07:35:18.263Z,1017.23
2022-08-23T07:36:22.724Z,1017.24
2022-08-23T07:37:27.184Z,1017.26
2022-08-23T07:38:31.625Z,1017.26
2022-08-23T07:39:36.065Z,1017.24
2022-08-23T07:40:40.798Z,1017.24
2022-08-23T07:41:44.918Z,1017.26
2022-08-23T07:42:49.376Z,1017.26
2022-08-23T07:43:53.936Z,1017.25
2022-08-23T07:44:58.316Z,1017.23
2022-08-23T07:46:04.249Z,1017.25
2022-08-23T07:47:07.235Z,1017.26
2022-08-23T07:48:11.634Z,1017.26
2022-08-23T07:49:16.062Z,1017.27
2022-08-23T07:50:20.568Z,1017.28
2022-08-23T07:51:24.978Z,1017.27
2022-08-23T07:52:29.416Z,1017.28
2022-08-23T07:53:37.629Z,1017.29
2022-08-23T07:54:38.305Z,1017.28
2022-08-23T07:55:42.750Z,1017.27
2022-08-23T07:56:47.249Z,1017.28
2022-08-23T07:57:51.634Z,1017.27
2022-08-23T07:58:56.163Z,1017.27
2022-08-23T08:00:00.551Z,1017.32
2022-08-23T08:01:04.967Z,1017.33
2022-08-23T08:02:09.881Z,1017.34
2022-08-23T08:03:13.937Z,1017.34
2022-08-23T08:04:18.305Z,1017.36
2022-08-23T08:05:22.760Z,1017.35
2022-08-23T08:06:27.203Z,1017.34
2022-08-23T08:07:31.621Z,1017.31
2022-08-23T08:08:36.170Z,1017.32
2022-08-23T08:09:40.585Z,1017.32
2022-08-23T08:10:45.074Z,1017.34
2022-08-23T08:11:49.513Z,1017.33
2022-08-23T08:12:54.030Z,1017.31
2022-08-23T08:13:58.421Z,1017.33
2022-08-23T08:15:02.853Z,1017.35
2022-08-23T08:16:07.463Z,1017.37
2022-08-23T08:17:11.764Z,1017.38
2022-08-23T08:18:16.236Z,1017.39
2022-08-23T08:19:20.650Z,1017.42
2022-08-23T08:20:25.072Z,1017.40
2022-08-23T08:21:29.627Z,1017.40
2022-08-23T08:22:34.023Z,1017.42
2022-08-23T08:23:38.500Z,1017.39
2022-08-23T08:24:42.935Z,1017.40
2022-08-23T08:25:47.466Z,1017.41
2022-08-23T08:26:51.892Z,1017.37
2022-08-23T08:27:56.418Z,1017.38
2022-08-23T08:29:00.775Z,1017.38
2022-08-23T08:30:05.329Z,1017.36
2022-08-23T08:31:09.948Z,1017.35
2022-08-23T08:32:14.366Z,1017.34
2022-08-23T08:33:18.715Z,1017.35
2022-08-23T08:34:23.138Z,1017.39
2022-08-23T08:35:27.586Z,1017.38
2022-08-23T08:36:32.073Z,1017.40
2022-08-23T08:37:36.509Z,1017.38
2022-08-23T08:38:48.143Z,1017.39
2022-08-23T08:39:45.975Z,1017.37
2022-08-23T08:40:49.906Z,1017.39
2022-08-23T08:42:04.320Z,1017.38
2022-08-23T08:42:58.864Z,1017.40
2022-08-23T08:44:03.412Z,1017.37
2022-08-23T08:45:07.832Z,1017.37
2022-08-23T08:46:12.343Z,1017.36
2022-08-23T08:47:16.779Z,1017.35
2022-08-23T08:48:21.228Z,1017.33
2022-08-23T08:49:25.757Z,1017.38
2022-08-23T08:50:30.161Z,1017.35
2022-08-23T08:51:35.199Z,1017.35
2022-08-23T08:52:39.083Z,1017.33
2022-08-23T08:53:43.542Z,1017.34
2022-08-23T08:54:48.454Z,1017.33
2022-08-23T08:55:52.987Z,1017.33
2022-08-23T08:56:57.037Z,1017.32
2022-08-23T08:58:01.695Z,1017.34
2022-08-23T08:59:05.852Z,1017.36
2022-08-23T09:00:10.317Z,1017.36
2022-08-23T09:01:14.896Z,1017.35
2022-08-23T09:02:32.660Z,1017.38
2022-08-23T09:03:23.795Z,1017.38
2022-08-23T09:04:28.144Z,1017.38
2022-08-23T09:05:32.679Z,1017.36
2022-08-23T09:06:37.209Z,1017.37
2022-08-23T09:07:41.566Z,1017.38
2022-08-23T09:08:46.032Z,1017.35
2022-08-23T09:09:50.524Z,1017.36
2022-08-23T09:10:54.936Z,1017.38
2022-08-23T09:11:59.422Z,1017.36
2022-08-23T09:13:03.894Z,1017.35
2022-08-23T09:14:08.362Z,1017.34
2022-08-23T09:15:12.830Z,1017.33
2022-08-23T09:16:17.415Z,1017.31
2022-08-23T09:17:21.884Z,1017.34
2022-08-23T09:18:26.412Z,1017.35
2022-08-23T09:19:30.818Z,1017.33
2022-08-23T09:20:35.317Z,1017.32
2022-08-23T09:21:39.799Z,1017.31
2022-08-23T09:22:44.270Z,1017.31
2022-08-23T09:23:48.765Z,1017.27
2022-08-23T09:24:53.279Z,1017.28
2022-08-23T09:26:01.235Z,1017.29
2022-08-23T09:27:02.306Z,1017.27
2022-08-23T09:28:06.780Z,1017.25
2022-08-23T09:29:11.248Z,1017.22
2022-08-23T09:30:15.688Z,1017.18
2022-08-23T09:31:20.158Z,1017.16
2022-08-23T09:32:24.596Z,1017.17
2022-08-23T09:33:29.041Z,1017.18
2022-08-23T09:34:33.502Z,1017.21
2022-08-23T09:35:37.980Z,1017.17
2022-08-23T09:36:42.438Z,1017.19
2022-08-23T09:37:46.954Z,1017.16
2022-08-23T09:38:51.370Z,1017.19
2022-08-23T09:39:55.906Z,1017.17
2022-08-23T09:41:14.328Z,1017.18
2022-08-23T09:42:17.404Z,1017.16
2022-08-23T09:43:22.038Z,1017.15
2022-08-23T09:44:26.364Z,1017.12
2022-08-23T09:45:35.128Z,1017.10
2022-08-23T09:46:35.402Z,1017.08
2022-08-23T09:47:44.103Z,1017.07
2022-08-23T09:48:44.256Z,1017.08
2022-08-23T09:49:48.691Z,1017.07
2022-08-23T09:50:53.128Z,1017.05
2022-08-23T09:51:57.577Z,1017.07
2022-08-23T09:53:04.468Z,1017.08
2022-08-23T09:54:06.480Z,1017.07
2022-08-23T09:55:10.978Z,1017.09
2022-08-23T09:56:15.537Z,1017.09
2022-08-23T09:57:19.906Z,1017.07
2022-08-23T09:58:24.380Z,1017.06
2022-08-23T09:59:28.809Z,1017.04
2022-08-23T10:00:33.284Z,1017.05
2022-08-23T10:01:39.276Z,1017.04
2022-08-23T10:02:42.236Z,1017.02
2022-08-23T10:03:46.785Z,1017.07
2022-08-23T10:04:51.345Z,1017.03
2022-08-23T10:05:55.766Z,1017.09
2022-08-23T10:07:00.282Z,1017.02
2022-08-23T10:08:08.844Z,1017.04
2022-08-23T10:09:09.271Z,1017.01
2022-08-23T10:10:13.724Z,1017.00
2022-08-23T10:11:18.326Z,1016.96
2022-08-23T10:12:22.745Z,1016.97
2022-08-23T10:13:27.297Z,1016.95
2022-08-23T10:14:31.786Z,1016.93
2022-08-23T10:15:36.537Z,1016.92
2022-08-23T10:16:40.709Z,1016.93
2022-08-23T10:17:45.166Z,1016.89
2022-08-23T10:18:49.632Z,1016.91
2022-08-23T10:19:54.096Z,1016.89
2022-08-23T10:20:58.591Z,1016.90
2022-08-23T10:22:03.023Z,1016.90
2022-08-23T10:23:07.577Z,1016.92
2022-08-23T10:24:12.009Z,1016.91
2022-08-23T10:25:16.459Z,1016.90
2022-08-23T10:26:20.891Z,1016.89
2022-08-23T10:27:25.366Z,1016.88
2022-08-23T10:28:29.941Z,1016.89
2022-08-23T10:29:34.284Z,1016.88
2022-08-23T10:30:38.761Z,1016.88
2022-08-23T10:31:43.190Z,1016.85
2022-08-23T10:32:47.699Z,1016.88
2022-08-23T10:33:52.157Z,1016.86
2022-08-23T10:34:56.619Z,1016.85
2022-08-23T10:36:01.207Z,1016.85
2022-08-23T10:37:05.726Z,1016.84
2022-08-23T10:38:10.111Z,1016.84
2022-08-23T10:39:14.582Z,1016.86
2022-08-23T10:40:19.192Z,1016.83
2022-08-23T10:41:23.693Z,1016.83
2022-08-23T10:42:28.145Z,1016.85
2022-08-23T10:43:32.599Z,1016.84
2022-08-23T10:44:37.066Z,1016.82
2022-08-23T10:45:41.661Z,1016.81
2022-08-23T10:46:46.168Z,1016.77
2022-08-23T10:47:50.550Z,1016.76
2022-08-23T10:48:55.057Z,1016.76
2022-08-23T10:49:59.495Z,1016.73
2022-08-23T10:51:03.960Z,1016.74
2022-08-23T10:52:08.425Z,1016.76
2022-08-23T10:53:12.930Z,1016.75
2022-08-23T10:54:17.390Z,1016.75
2022-08-23T10:55:21.859Z,1016.77
2022-08-23T10:56:26.318Z,1016.76
2022-08-23T10:57:30.813Z,1016.76
2022-08-23T10:58:35.299Z,1016.77
2022-08-23T10:59:39.756Z,1016.74
2022-08-23T11:00:44.251Z,1016.74
2022-08-23T11:01:48.842Z,1016.73
2022-08-23T11:02:53.479Z,1016.70
2022-08-23T11:03:57.741Z,1016.69
2022-08-23T11:05:02.260Z,1016.70
2022-08-23T11:06:06.747Z,1016.70
2022-08-23T11:07:11.209Z,1016.67
2022-08-23T11:08:15.772Z,1016.68
2022-08-23T11:09:20.215Z,1016.68
2022-08-23T11:10:24.724Z,1016.69
2022-08-23T11:11:29.288Z,1016.67
2022-08-23T11:12:33.687Z,1016.70
2022-08-23T11:13:38.139Z,1016.70
2022-08-23T11:14:42.646Z,1016.69
2022-08-23T11:15:47.301Z,1016.71
2022-08-23T11:16:51.727Z,1016.68
2022-08-23T11:17:56.333Z,1016.67
2022-08-23T11:19:00.624Z,1016.67
2022-08-23T11:20:05.126Z,1016.68
2022-08-23T11:21:09.644Z,1016.71
2022-08-23T11:22:14.069Z,1016.67
2022-08-23T11:23:18.543Z,1016.67
2022-08-23T11:24:22.981Z,1016.66
2022-08-23T11:25:27.453Z,1016.64
2022-08-23T11:26:31.922Z,1016.63
2022-08-23T11:27:36.424Z,1016.64
2022-08-23T11:28:40.912Z,1016.63
2022-08-23T11:29:45.480Z,1016.62
2022-08-23T11:30:50.224Z,1016.61
2022-08-23T11:31:54.461Z,1016.62
2022-08-23T11:32:58.933Z,1016.60
2022-08-23T11:34:03.401Z,1016.60
2022-08-23T11:35:08.006Z,1016.55
2022-08-23T11:36:12.497Z,1016.46
2022-08-23T11:37:16.958Z,1016.45
2022-08-23T11:38:22.470Z,1016.47
2022-08-23T11:39:26.939Z,1016.50
2022-08-23T11:40:30.483Z,1016.49
2022-08-23T11:41:34.881Z,1016.48
2022-08-23T11:42:39.339Z,1016.47
2022-08-23T11:43:43.733Z,1016.48
2022-08-23T11:44:48.255Z,1016.53
2022-08-23T11:45:52.816Z,1016.54
2022-08-23T11:46:57.247Z,1016.54
2022-08-23T11:48:02.043Z,1016.55
2022-08-23T11:49:06.190Z,1016.55
2022-08-23T11:50:10.683Z,1016.52
2022-08-23T11:51:15.171Z,1016.51
2022-08-23T11:52:19.648Z,1016.49
2022-08-23T11:53:24.130Z,1016.47
2022-08-23T11:54:28.636Z,1016.49
2022-08-23T11:55:33.209Z,1016.50
2022-08-23T11:56:37.623Z,1016.51
2022-08-23T11:57:42.123Z,1016.51
2022-08-23T11:58:46.640Z,1016.49
2022-08-23T11:59:51.154Z,1016.49
2022-08-23T12:00:55.627Z,1016.51
2022-08-23T12:02:00.087Z,1016.52
2022-08-23T12:03:04.739Z,1016.51
2022-08-23T12:04:09.298Z,1016.50
2022-08-23T12:05:13.601Z,1016.53
2022-08-23T12:06:18.083Z,1016.51
2022-08-23T12:07:22.607Z,1016.51
2022-08-23T12:08:27.095Z,1016.51
2022-08-23T12:09:31.596Z,1016.48
2022-08-23T12:10:36.156Z,1016.49
2022-08-23T12:11:40.714Z,1016.48
2022-08-23T12:12:47.253Z,1016.49
2022-08-23T12:13:49.765Z,1016.49
2022-08-23T12:14:54.266Z,1016.46
2022-08-23T12:15:58.811Z,1016.45
2022-08-23T12:17:04.216Z,1016.43
2022-08-23T12:18:07.728Z,1016.45
2022-08-23T12:19:13.512Z,1016.48
2022-08-23T12:20:17.395Z,1016.44
2022-08-23T12:21:21.305Z,1016.44
2022-08-23T12:22:25.806Z,1016.48
2022-08-23T12:23:30.859Z,1016.46
2022-08-23T12:24:34.801Z,1016.42
2022-08-23T12:25:39.331Z,1016.38
2022-08-23T12:26:43.823Z,1016.38
2022-08-23T12:27:48.361Z,1016.36
2022-08-23T12:28:52.905Z,1016.34
2022-08-23T12:29:57.330Z,1016.38
2022-08-23T12:31:07.796Z,1016.38
2022-08-23T12:32:06.467Z,1016.36
2022-08-23T12:33:10.967Z,1016.34
2022-08-23T12:34:15.467Z,1016.31
2022-08-23T12:35:19.966Z,1016.32
2022-08-23T12:36:24.455Z,1016.28
2022-08-23T12:37:28.931Z,1016.31
2022-08-23T12:38:33.525Z,1016.30
2022-08-23T12:39:37.964Z,1016.29
2022-08-23T12:40:43.198Z,1016.26
2022-08-23T12:41:46.997Z,1016.28
2022-08-23T12:42:51.629Z,1016.29
2022-08-23T12:43:56.097Z,1016.34
2022-08-23T12:45:00.588Z,1016.33
2022-08-23T12:46:11.186Z,1016.30
2022-08-23T12:47:14.301Z,1016.27
2022-08-23T12:48:18.805Z,1016.29
2022-08-23T12:49:23.270Z,1016.25
2022-08-23T12:50:32.633Z,1016.27
2022-08-23T12:51:32.374Z,1016.25
2022-08-23T12:52:36.876Z,1016.21
2022-08-23T12:53:44.794Z,1016.23
2022-08-23T12:54:45.900Z,1016.25
2022-08-23T12:55:50.490Z,1016.26
2022-08-23T12:56:54.944Z,1016.22
2022-08-23T12:57:59.446Z,1016.22
2022-08-23T12:59:04.066Z,1016.20
2022-08-23T13:00:16.360Z,1016.21
2022-08-23T13:01:13.091Z,1016.22
2022-08-23T13:02:17.559Z,1016.19